Nearby METAR Reports

 

KICL - Clarinda, Iowa, USA
Distance from station: N 49mi, 79km
Updated: Sun, 17-Feb-2019 8:55am CST
Overcast
Overcast
 Wind from NW
Wind: NW 9 mph , 15 km/h
Temperature: 23°F , -5°C
Wind Chill: 13°F , -11°C
Dew Point: 21°F , -6°C
Humidity: 93%
Barometer: 29.82 inHg , 1009.8 hPa
Clouds: Overcast
Visibility: 8 miles , 13 km
Cloud details: Overcast 1100 ft
2019/02/17 14:55 KICL 171455Z AUTO 32008KT 8SM OVC011 M05/M06 A2982 RMK AO2
KDSM - Des Moines, Iowa, USA
Distance from station: NNE 122mi, 196km
Updated: Sun, 17-Feb-2019 8:54am CST
Light snow, Mist, Overcast
Light snow, Mist, Overcast
 Wind from NE
Wind: NE 8 mph , 13 km/h
Temperature: 25°F , -4°C
Wind Chill: 16°F , -9°C
Dew Point: 21°F , -6°C
Humidity: 86%
Barometer: 29.81 inHg , 1009.5 hPa
Summary: Light snow, Mist
Clouds: Overcast
Visibility: 1 mile , 2 km
Cloud details: Mostly cloudy 2300 ft
Overcast 3200 ft
2019/02/17 14:54 KDSM 171454Z 05007KT 1SM R31/4500VP6000FT -SN BR BKN023 OVC032 M04/M06 A2981 RMK AO2 SFC VIS 1 1/4 SLP107 P0001 60005 T10441056 51012 $
KFNB - Falls City, Nebraska, USA
Distance from station: W 50mi, 80km
Updated: Sun, 17-Feb-2019 8:53am CST
Light snow, Overcast
Light snow, Overcast
 Wind from WNW
Wind: WNW 15 mph , 24 km/h
Temperature: 19°F , -7°C
Wind Chill: 5°F , -15°C
Dew Point: 16°F , -9°C
Humidity: 86%
Barometer: 29.84 inHg , 1010.5 hPa
Summary: Light Snow
Clouds: Overcast
Visibility: 5 miles , 8 km
Cloud details: Few Clouds 1600 ft
Overcast 4000 ft
2019/02/17 14:53 KFNB 171453Z AUTO 29013KT 5SM -SN FEW016 OVC040 M07/M09 A2984 RMK AO2 SNB50 SLP118 P0000 60000 T10671094 53008 $
 
KMCI - Kansas City, Missouri, USA
Distance from station: S 65mi, 104km
Updated: Sun, 17-Feb-2019 8:53am CST
Mist, Overcast
Mist, Overcast
 Wind from WNW
Wind: WNW 9 mph , 15 km/h
Temperature: 23°F , -5°C
Wind Chill: 13°F , -11°C
Dew Point: 19°F , -7°C
Humidity: 86%
Barometer: 29.84 inHg , 1010.5 hPa
Summary: Mist
Clouds: Overcast
Visibility: 4 miles , 6 km
Cloud details: Overcast 1000 ft
2019/02/17 14:53 KMCI 171453Z 29008KT 4SM BR OVC010 M05/M07 A2984 RMK AO2 SLP114 60000 T10501067 53025
KOMA - Omaha, Nebraska, USA
Distance from station: NNW 105mi, 169km
Updated: Sun, 17-Feb-2019 8:58am CST
Light snow, Mist, Overcast
Light snow, Mist, Overcast
 Wind from NNW
Wind: NNW 13 mph , 20 km/h
Temperature: 19°F , -7°C
Wind Chill: 6°F , -14°C
Dew Point: 16°F , -9°C
Humidity: 86%
Barometer: 29.85 inHg , 1010.8 hPa
Summary: Light snow, Mist
Clouds: Overcast
Visibility: 2 miles , 3 km
Cloud details: Overcast 1700 ft
2019/02/17 14:58 KOMA 171458Z 34011KT 2SM -SN BR OVC017 M07/M09 A2985 RMK AO2 P0000 T10671089 $
KRDK - Red Oak, Iowa, USA
Distance from station: N 70mi, 112km
Updated: Sun, 17-Feb-2019 8:55am CST
Light snow, Mostly cloudy
Light snow, Mostly cloudy
 Wind from NNW
Wind: NNW 8 mph , 13 km/h
Temperature: 23°F , -5°C
Wind Chill: 14°F , -10°C
Dew Point: 23°F , -5°C
Humidity: 100%
Barometer: 29.81 inHg , 1009.5 hPa
Summary: Light Snow
Clouds: Mostly cloudy
Visibility: 6 miles , 10 km
Cloud details: Mostly cloudy 1500 ft
2019/02/17 14:55 KRDK 171455Z AUTO 33007KT 6SM -SN BKN015 M05/M05 A2981 RMK AO2
 
KSTJ - Saint Joseph, Missouri, USA
Distance from station: SW 23mi, 37km
Updated: Sun, 17-Feb-2019 8:53am CST
Mist, Overcast
Mist, Overcast
 Wind from W
Wind: W 14 mph , 22 km/h
Temperature: 21°F , -6°C
Wind Chill: 8°F , -13°C
Dew Point: 19°F , -7°C
Humidity: 93%
Barometer: 29.84 inHg , 1010.5 hPa
Summary: Mist
Clouds: Overcast
Visibility: 4 miles , 6 km
Cloud details: Overcast 1100 ft
2019/02/17 14:53 KSTJ 171453Z 28012KT 4SM BR OVC011 M06/M07 A2984 RMK AO2 SLP115 T10561067 53021
KTOP - Topeka, Kansas, USA
Distance from station: SW 85mi, 137km
Updated: Sun, 17-Feb-2019 8:53am CST
Overcast
Overcast
 Wind from W
Wind: W 14 mph , 22 km/h
Temperature: 21°F , -6°C
Wind Chill: 8°F , -13°C
Dew Point: 16°F , -9°C
Humidity: 80%
Barometer: 29.89 inHg , 1012.2 hPa
Clouds: Overcast
Visibility: 8 miles , 13 km
Cloud details: Overcast 1400 ft
2019/02/17 14:53 KTOP 171453Z 28012KT 8SM OVC014 M06/M09 A2989 RMK AO2 SLP132 T10561089 51029
KICT - Wichita, Kansas, USA
Distance from station: SW 215mi, 346km
Updated: Sun, 17-Feb-2019 8:53am CST
Partly cloudy
Partly cloudy
 Wind from NW
Wind: NW 14 mph , 22 km/h
Temperature: 27°F , -3°C
Wind Chill: 16°F , -9°C
Dew Point: 21°F , -6°C
Humidity: 80%
Barometer: 29.94 inHg , 1013.9 hPa
Clouds: Partly cloudy
Visibility: 10 miles , 16 km
Cloud details: Partly cloudy 1800 ft
2019/02/17 14:53 KICT 171453Z 31012KT 10SM SCT018 M03/M06 A2994 RMK AO2 SLP151 T10281061 53019 $